»·PEaware :: N265K KVCV-KHHR

N265K :: KVCV-KHHR

FLIGHT INFORMATION

Flight Status: Arrived
Operator: Privately registered:
United States
More flights under this callsign
Pilot: Tytus A. (10113)
Aircraft: CESSNA 210 CENTURION
(C210)
More flights by this aircraft type
Origin: KVCV Socal Logistics
United States
Destination: KHHR Northrop/Hawthorne Mun
United States
More flights between these airports :: More routes between these airports
Route: +V442 PDZ
File this flight plan on PilotEdge
Remarks:
Altitude:
(Current/Filed)
12,000ft
Speed:
(Current/Filed)
160kts
Departed: 07-May-20 09:15 PM
Arrived: 07-May-20 10:00 PM
Distance/Time
Traveled:
62nm/0:44
Distance/Time
To Go:
Arrived

Flight Plot

Page will automatically refresh every two minutes.

Flight plan parsing failed; only flown route is shown


Map Options




Map Legend


Flown Route
Filed Route
Departure Airport
Arrival Airport
Navaid (VOR, NDB)
Fix

Horizontal Profiles

Position Reports

Time Latitude Longitude Heading Altitude Ground
Speed
07-May-20 20:53 34.585037 -117.378282 134 2888ft 0kts
07-May-20 20:54 34.585037 -117.378282 134 2888ft 0kts
07-May-20 20:55 34.585037 -117.378282 134 2888ft 0kts
07-May-20 20:56 34.585037 -117.378282 134 2888ft 0kts
07-May-20 20:57 34.585037 -117.378282 134 2888ft 0kts
07-May-20 20:58 34.585037 -117.378282 134 2888ft 0kts
07-May-20 20:59 34.585037 -117.378282 134 2888ft 0kts
07-May-20 21:00 34.585037 -117.378282 134 2888ft 0kts
07-May-20 21:01 34.585037 -117.378282 134 2888ft 0kts
07-May-20 21:02 34.585037 -117.378282 134 2888ft 0kts
07-May-20 21:03 34.585037 -117.378282 134 2888ft 0kts
07-May-20 21:04 34.585037 -117.378282 134 2888ft 0kts
07-May-20 21:04 34.585037 -117.378282 134 2888ft 0kts
07-May-20 21:06 34.585037 -117.378282 134 2888ft 0kts
07-May-20 21:06 34.585037 -117.378282 134 2888ft 0kts
07-May-20 21:07 34.585037 -117.378282 134 2888ft 0kts
07-May-20 21:09 34.585037 -117.378282 134 2888ft 0kts
07-May-20 21:09 34.585037 -117.378282 134 2888ft 0kts
07-May-20 21:10 34.588759 -117.376940 42 2888ft 22kts
07-May-20 21:11 34.592800 -117.370862 98 2888ft 17kts
07-May-20 21:12 34.595414 -117.366764 0 2888ft 37kts
07-May-20 21:13 34.599463 -117.366193 334 2888ft 0kts
07-May-20 21:14 34.592297 -117.376225 224 2978ft 99kts
07-May-20 21:15 34.581700 -117.407216 271 3811ft 113kts
07-May-20 21:16 34.583166 -117.447012 272 4539ft 122kts
07-May-20 21:17 34.584665 -117.489271 271 5251ft 127kts
07-May-20 21:18 34.585822 -117.532823 273 5956ft 131kts
07-May-20 21:19 34.608626 -117.559897 8 6694ft 128kts
07-May-20 21:20 34.614100 -117.526572 112 7448ft 126kts
07-May-20 21:21 34.600332 -117.486452 112 8158ft 130kts
07-May-20 21:22 34.585717 -117.445583 117 8870ft 132kts
07-May-20 21:23 34.569552 -117.405545 111 9598ft 134kts
07-May-20 21:24 34.555652 -117.362849 111 10305ft 137kts
07-May-20 21:25 34.541818 -117.319078 111 11008ft 140kts
07-May-20 21:26 34.528218 -117.274300 111 11703ft 140kts
07-May-20 21:27 34.514332 -117.227300 111 12007ft 162kts
07-May-20 21:28 34.498098 -117.174196 122 12034ft 169kts
07-May-20 21:29 34.458049 -117.178559 211 12060ft 162kts
07-May-20 21:30 34.420311 -117.208726 214 12053ft 162kts
07-May-20 21:31 34.382671 -117.239145 214 12041ft 163kts
07-May-20 21:32 34.344556 -117.269891 214 12008ft 163kts
07-May-20 21:33 34.305268 -117.297192 207 12007ft 163kts
07-May-20 21:34 34.264585 -117.321593 207 12005ft 163kts
07-May-20 21:35 34.224253 -117.345889 207 12035ft 162kts
07-May-20 21:36 34.183651 -117.370333 207 12025ft 163kts
07-May-20 21:37 34.142920 -117.394826 207 12003ft 164kts
07-May-20 21:38 34.100108 -117.420634 207 11513ft 180kts
07-May-20 21:39 34.054611 -117.448216 206 10841ft 184kts
07-May-20 21:40 34.008522 -117.475815 206 10163ft 185kts
07-May-20 21:41 33.961750 -117.503793 205 9229ft 189kts
07-May-20 21:42 33.920318 -117.540326 252 8243ft 193kts
07-May-20 21:43 33.919966 -117.604206 273 7313ft 190kts
07-May-20 21:44 33.921616 -117.667468 270 6385ft 186kts
07-May-20 21:45 33.931118 -117.725859 309 5484ft 181kts
07-May-20 21:46 33.938721 -117.784216 274 4613ft 177kts
07-May-20 21:47 33.943747 -117.842078 275 3983ft 163kts
07-May-20 21:48 33.945501 -117.892873 266 3961ft 141kts
07-May-20 21:49 33.942343 -117.937910 264 3965ft 130kts
07-May-20 21:50 33.939171 -117.981125 264 3923ft 132kts
07-May-20 21:51 33.935942 -118.029905 266 3011ft 159kts
07-May-20 21:52 33.935948 -118.078795 270 2636ft 129kts
07-May-20 21:53 33.933829 -118.124412 263 1986ft 140kts
07-May-20 21:54 33.930851 -118.171840 268 1440ft 133kts
07-May-20 21:55 33.928856 -118.213170 262 1397ft 113kts
07-May-20 21:56 33.926757 -118.250532 268 1312ft 115kts
07-May-20 21:57 33.925151 -118.287527 267 939ft 98kts
07-May-20 21:58 33.923614 -118.318319 264 281ft 85kts
07-May-20 21:59 33.922837 -118.335347 266 69ft 11kts

Navigation Log

Ident Type
Flight plan parsing failed, navigation log unavailable